Terminal Aerodrome Forecast
Issued by NWS

Home | Current Version | Previous Version | Graphics & Text | Print | Product List | Glossary On
Versions: 1 2 3 4 5 6 7 8 9 10 11 12 13 14 15 16
000
FTUS43 KGRB 280520
TAFMTW
TAF
KMTW 280520Z 2806/2906 25009KT P6SM VCSH BKN015 OVC025
     FM280800 24007KT P6SM OVC025
     FM281200 24009KT P6SM SCT030
     FM281600 19012KT P6SM SCT100
     FM282100 17006KT P6SM SCT035 BKN100
     FM290300 33006KT P6SM VCSH BKN035 OVC060=

USA.gov is the U.S. government's official web portal to all federal, state and local government web resources and services.